sensor_id;sensor_type;location;lat;lon;timestamp;P1;durP1;ratioP1;P2;durP2;ratioP2
79759;SDS011;69248;42.138;24.742;2023-05-16T00:01:48;48.35;;;35.88;;
79759;SDS011;69248;42.138;24.742;2023-05-16T00:04:16;49.73;;;34.88;;
79759;SDS011;69248;42.138;24.742;2023-05-16T00:06:44;46.08;;;34.43;;
79759;SDS011;69248;42.138;24.742;2023-05-16T00:09:12;46.58;;;33.55;;
79759;SDS011;69248;42.138;24.742;2023-05-16T00:11:39;52.55;;;38.28;;
79759;SDS011;69248;42.138;24.742;2023-05-16T00:14:07;56.20;;;41.30;;
79759;SDS011;69248;42.138;24.742;2023-05-16T00:16:34;48.13;;;37.93;;
79759;SDS011;69248;42.138;24.742;2023-05-16T00:19:02;44.48;;;33.33;;
79759;SDS011;69248;42.138;24.742;2023-05-16T00:21:30;50.03;;;38.30;;
79759;SDS011;69248;42.138;24.742;2023-05-16T00:23:57;52.33;;;37.65;;
79759;SDS011;69248;42.138;24.742;2023-05-16T00:26:25;55.23;;;38.70;;
79759;SDS011;69248;42.138;24.742;2023-05-16T00:28:52;50.75;;;37.85;;
79759;SDS011;69248;42.138;24.742;2023-05-16T00:31:20;52.33;;;37.60;;
79759;SDS011;69248;42.138;24.742;2023-05-16T00:33:48;63.63;;;41.37;;
79759;SDS011;69248;42.138;24.742;2023-05-16T00:36:16;51.35;;;38.40;;
79759;SDS011;69248;42.138;24.742;2023-05-16T00:38:43;51.53;;;38.95;;
79759;SDS011;69248;42.138;24.742;2023-05-16T00:41:11;68.10;;;48.80;;
79759;SDS011;69248;42.138;24.742;2023-05-16T00:43:39;66.40;;;47.67;;
79759;SDS011;69248;42.138;24.742;2023-05-16T00:46:06;59.15;;;41.08;;
79759;SDS011;69248;42.138;24.742;2023-05-16T00:48:34;61.20;;;44.53;;
79759;SDS011;69248;42.138;24.742;2023-05-16T00:51:01;54.40;;;40.48;;
79759;SDS011;69248;42.138;24.742;2023-05-16T00:53:31;45.05;;;35.03;;
79759;SDS011;69248;42.138;24.742;2023-05-16T00:55:58;54.33;;;40.28;;
79759;SDS011;69248;42.138;24.742;2023-05-16T00:58:26;53.35;;;37.58;;
79759;SDS011;69248;42.138;24.742;2023-05-16T01:00:57;51.55;;;40.48;;
79759;SDS011;69248;42.138;24.742;2023-05-16T01:03:24;60.83;;;45.15;;
79759;SDS011;69248;42.138;24.742;2023-05-16T01:05:52;54.93;;;42.73;;
79759;SDS011;69248;42.138;24.742;2023-05-16T01:08:20;49.55;;;38.08;;
79759;SDS011;69248;42.138;24.742;2023-05-16T01:13:28;50.80;;;39.10;;
79759;SDS011;69248;42.138;24.742;2023-05-16T01:16:20;45.55;;;34.90;;
79759;SDS011;69248;42.138;24.742;2023-05-16T01:19:03;55.35;;;37.28;;
79759;SDS011;69248;42.138;24.742;2023-05-16T01:21:48;64.60;;;51.15;;
79759;SDS011;69248;42.138;24.742;2023-05-16T01:24:34;57.90;;;41.65;;
79759;SDS011;69248;42.138;24.742;2023-05-16T01:27:03;61.02;;;43.83;;
79759;SDS011;69248;42.138;24.742;2023-05-16T01:29:32;60.15;;;46.48;;
79759;SDS011;69248;42.138;24.742;2023-05-16T01:31:59;49.93;;;38.10;;
79759;SDS011;69248;42.138;24.742;2023-05-16T01:34:27;47.80;;;36.68;;
79759;SDS011;69248;42.138;24.742;2023-05-16T01:39:52;55.85;;;41.08;;
79759;SDS011;69248;42.138;24.742;2023-05-16T01:42:22;55.95;;;40.45;;
79759;SDS011;69248;42.138;24.742;2023-05-16T01:44:59;50.88;;;38.42;;
79759;SDS011;69248;42.138;24.742;2023-05-16T01:47:31;48.08;;;35.83;;
79759;SDS011;69248;42.138;24.742;2023-05-16T01:50:06;48.65;;;34.33;;
79759;SDS011;69248;42.138;24.742;2023-05-16T01:52:36;44.08;;;33.85;;
79759;SDS011;69248;42.138;24.742;2023-05-16T01:55:41;43.33;;;34.27;;
79759;SDS011;69248;42.138;24.742;2023-05-16T01:58:06;65.87;;;49.63;;
79759;SDS011;69248;42.138;24.742;2023-05-16T02:00:35;56.45;;;41.73;;
79759;SDS011;69248;42.138;24.742;2023-05-16T02:03:03;49.25;;;36.10;;
79759;SDS011;69248;42.138;24.742;2023-05-16T02:05:31;53.58;;;38.17;;
79759;SDS011;69248;42.138;24.742;2023-05-16T02:07:58;56.63;;;39.38;;
79759;SDS011;69248;42.138;24.742;2023-05-16T02:10:26;55.15;;;38.02;;
79759;SDS011;69248;42.138;24.742;2023-05-16T02:12:54;45.03;;;34.20;;
79759;SDS011;69248;42.138;24.742;2023-05-16T02:15:21;52.10;;;37.03;;
79759;SDS011;69248;42.138;24.742;2023-05-16T02:17:49;59.10;;;43.02;;
79759;SDS011;69248;42.138;24.742;2023-05-16T02:20:16;70.60;;;50.52;;
79759;SDS011;69248;42.138;24.742;2023-05-16T02:22:44;56.18;;;40.88;;
79759;SDS011;69248;42.138;24.742;2023-05-16T02:25:12;52.53;;;40.25;;
79759;SDS011;69248;42.138;24.742;2023-05-16T02:27:41;49.40;;;36.95;;
79759;SDS011;69248;42.138;24.742;2023-05-16T02:30:09;59.18;;;40.63;;
79759;SDS011;69248;42.138;24.742;2023-05-16T02:32:37;59.53;;;44.75;;
79759;SDS011;69248;42.138;24.742;2023-05-16T02:35:06;75.08;;;54.35;;
79759;SDS011;69248;42.138;24.742;2023-05-16T02:37:33;51.37;;;39.05;;
79759;SDS011;69248;42.138;24.742;2023-05-16T02:40:01;49.00;;;35.73;;
79759;SDS011;69248;42.138;24.742;2023-05-16T02:42:31;56.00;;;39.58;;
79759;SDS011;69248;42.138;24.742;2023-05-16T02:44:58;54.75;;;39.42;;
79759;SDS011;69248;42.138;24.742;2023-05-16T02:47:26;49.70;;;36.93;;
79759;SDS011;69248;42.138;24.742;2023-05-16T02:49:53;74.15;;;53.45;;
79759;SDS011;69248;42.138;24.742;2023-05-16T02:52:21;67.82;;;48.70;;
79759;SDS011;69248;42.138;24.742;2023-05-16T02:54:49;60.58;;;44.38;;
79759;SDS011;69248;42.138;24.742;2023-05-16T02:57:16;50.15;;;36.70;;
79759;SDS011;69248;42.138;24.742;2023-05-16T02:59:44;47.45;;;34.78;;
79759;SDS011;69248;42.138;24.742;2023-05-16T03:02:11;53.02;;;38.90;;
79759;SDS011;69248;42.138;24.742;2023-05-16T03:04:39;78.25;;;54.42;;
79759;SDS011;69248;42.138;24.742;2023-05-16T03:07:06;58.63;;;41.63;;
79759;SDS011;69248;42.138;24.742;2023-05-16T03:09:34;74.65;;;49.98;;
79759;SDS011;69248;42.138;24.742;2023-05-16T03:12:01;77.92;;;52.60;;
79759;SDS011;69248;42.138;24.742;2023-05-16T03:14:29;51.08;;;37.38;;
79759;SDS011;69248;42.138;24.742;2023-05-16T03:16:57;59.90;;;43.45;;
79759;SDS011;69248;42.138;24.742;2023-05-16T03:19:24;53.95;;;38.48;;
79759;SDS011;69248;42.138;24.742;2023-05-16T03:21:52;78.17;;;51.37;;
79759;SDS011;69248;42.138;24.742;2023-05-16T03:24:20;81.47;;;55.15;;
79759;SDS011;69248;42.138;24.742;2023-05-16T03:26:47;71.55;;;50.45;;
79759;SDS011;69248;42.138;24.742;2023-05-16T03:29:15;61.63;;;45.67;;
79759;SDS011;69248;42.138;24.742;2023-05-16T03:31:43;65.35;;;45.92;;
79759;SDS011;69248;42.138;24.742;2023-05-16T03:34:10;84.92;;;56.08;;
79759;SDS011;69248;42.138;24.742;2023-05-16T03:36:38;88.78;;;56.63;;
79759;SDS011;69248;42.138;24.742;2023-05-16T03:39:07;61.45;;;43.15;;
79759;SDS011;69248;42.138;24.742;2023-05-16T03:41:34;67.85;;;46.95;;
79759;SDS011;69248;42.138;24.742;2023-05-16T03:44:02;52.38;;;38.23;;
79759;SDS011;69248;42.138;24.742;2023-05-16T03:46:30;76.53;;;54.50;;
79759;SDS011;69248;42.138;24.742;2023-05-16T03:48:57;87.00;;;55.03;;
79759;SDS011;69248;42.138;24.742;2023-05-16T03:51:25;77.03;;;52.55;;
79759;SDS011;69248;42.138;24.742;2023-05-16T03:53:53;73.97;;;53.48;;
79759;SDS011;69248;42.138;24.742;2023-05-16T03:56:20;67.35;;;47.23;;
79759;SDS011;69248;42.138;24.742;2023-05-16T03:58:48;70.87;;;50.12;;
79759;SDS011;69248;42.138;24.742;2023-05-16T04:01:15;77.22;;;51.92;;
79759;SDS011;69248;42.138;24.742;2023-05-16T04:03:43;56.37;;;41.63;;
79759;SDS011;69248;42.138;24.742;2023-05-16T04:06:10;72.70;;;51.25;;
79759;SDS011;69248;42.138;24.742;2023-05-16T04:08:38;59.98;;;37.70;;
79759;SDS011;69248;42.138;24.742;2023-05-16T04:11:05;54.10;;;40.95;;
79759;SDS011;69248;42.138;24.742;2023-05-16T04:13:33;64.62;;;43.40;;
79759;SDS011;69248;42.138;24.742;2023-05-16T04:16:00;57.83;;;39.75;;
79759;SDS011;69248;42.138;24.742;2023-05-16T04:18:28;67.75;;;47.67;;
79759;SDS011;69248;42.138;24.742;2023-05-16T04:20:55;65.60;;;45.45;;
79759;SDS011;69248;42.138;24.742;2023-05-16T04:23:23;51.58;;;39.67;;
79759;SDS011;69248;42.138;24.742;2023-05-16T04:25:50;50.40;;;36.73;;
79759;SDS011;69248;42.138;24.742;2023-05-16T04:28:18;61.25;;;44.53;;
79759;SDS011;69248;42.138;24.742;2023-05-16T04:30:46;64.15;;;42.80;;
79759;SDS011;69248;42.138;24.742;2023-05-16T04:33:15;69.27;;;50.63;;
79759;SDS011;69248;42.138;24.742;2023-05-16T04:35:43;50.58;;;38.75;;
79759;SDS011;69248;42.138;24.742;2023-05-16T04:38:11;63.70;;;42.50;;
79759;SDS011;69248;42.138;24.742;2023-05-16T04:40:38;68.28;;;45.15;;
79759;SDS011;69248;42.138;24.742;2023-05-16T04:43:07;63.33;;;46.63;;
79759;SDS011;69248;42.138;24.742;2023-05-16T04:45:35;56.45;;;43.13;;
79759;SDS011;69248;42.138;24.742;2023-05-16T04:48:02;74.07;;;43.02;;
79759;SDS011;69248;42.138;24.742;2023-05-16T04:50:30;57.58;;;38.53;;
79759;SDS011;69248;42.138;24.742;2023-05-16T04:52:57;51.77;;;38.95;;
79759;SDS011;69248;42.138;24.742;2023-05-16T04:55:25;61.20;;;35.15;;
79759;SDS011;69248;42.138;24.742;2023-05-16T04:57:53;60.78;;;39.88;;
79759;SDS011;69248;42.138;24.742;2023-05-16T05:00:20;47.27;;;33.63;;
79759;SDS011;69248;42.138;24.742;2023-05-16T05:02:48;53.80;;;36.75;;
79759;SDS011;69248;42.138;24.742;2023-05-16T05:05:15;51.45;;;35.43;;
79759;SDS011;69248;42.138;24.742;2023-05-16T05:07:43;58.28;;;35.05;;
79759;SDS011;69248;42.138;24.742;2023-05-16T05:10:11;52.98;;;33.08;;
79759;SDS011;69248;42.138;24.742;2023-05-16T05:12:38;45.05;;;32.17;;
79759;SDS011;69248;42.138;24.742;2023-05-16T05:15:06;45.70;;;30.95;;
79759;SDS011;69248;42.138;24.742;2023-05-16T05:17:34;40.88;;;30.05;;
79759;SDS011;69248;42.138;24.742;2023-05-16T05:20:02;44.35;;;31.85;;
79759;SDS011;69248;42.138;24.742;2023-05-16T05:22:33;47.73;;;31.27;;
79759;SDS011;69248;42.138;24.742;2023-05-16T05:25:00;43.85;;;30.72;;
79759;SDS011;69248;42.138;24.742;2023-05-16T05:27:28;38.17;;;29.20;;
79759;SDS011;69248;42.138;24.742;2023-05-16T05:29:56;47.13;;;31.55;;
79759;SDS011;69248;42.138;24.742;2023-05-16T05:32:23;49.13;;;33.13;;
79759;SDS011;69248;42.138;24.742;2023-05-16T05:34:51;49.90;;;30.45;;
79759;SDS011;69248;42.138;24.742;2023-05-16T05:37:18;40.98;;;27.07;;
79759;SDS011;69248;42.138;24.742;2023-05-16T05:39:46;39.00;;;29.27;;
79759;SDS011;69248;42.138;24.742;2023-05-16T05:42:13;46.23;;;28.23;;
79759;SDS011;69248;42.138;24.742;2023-05-16T05:44:41;43.05;;;27.90;;
79759;SDS011;69248;42.138;24.742;2023-05-16T05:47:09;45.23;;;26.00;;
79759;SDS011;69248;42.138;24.742;2023-05-16T05:49:37;40.67;;;24.90;;
79759;SDS011;69248;42.138;24.742;2023-05-16T05:52:04;39.83;;;28.70;;
79759;SDS011;69248;42.138;24.742;2023-05-16T05:54:32;51.33;;;28.02;;
79759;SDS011;69248;42.138;24.742;2023-05-16T05:56:59;50.12;;;28.45;;
79759;SDS011;69248;42.138;24.742;2023-05-16T05:59:27;38.25;;;24.92;;
79759;SDS011;69248;42.138;24.742;2023-05-16T06:01:55;34.05;;;23.07;;
79759;SDS011;69248;42.138;24.742;2023-05-16T06:04:23;27.50;;;21.27;;
79759;SDS011;69248;42.138;24.742;2023-05-16T06:06:51;34.63;;;20.80;;
79759;SDS011;69248;42.138;24.742;2023-05-16T06:09:19;29.85;;;20.97;;
79759;SDS011;69248;42.138;24.742;2023-05-16T06:11:48;29.77;;;18.57;;
79759;SDS011;69248;42.138;24.742;2023-05-16T06:14:16;37.63;;;21.62;;
79759;SDS011;69248;42.138;24.742;2023-05-16T06:16:43;28.42;;;18.92;;
79759;SDS011;69248;42.138;24.742;2023-05-16T06:19:11;30.32;;;19.45;;
79759;SDS011;69248;42.138;24.742;2023-05-16T06:21:40;36.93;;;20.02;;
79759;SDS011;69248;42.138;24.742;2023-05-16T06:24:08;33.33;;;18.67;;
79759;SDS011;69248;42.138;24.742;2023-05-16T06:26:37;35.78;;;22.17;;
79759;SDS011;69248;42.138;24.742;2023-05-16T06:29:04;31.07;;;19.20;;
79759;SDS011;69248;42.138;24.742;2023-05-16T06:31:32;29.63;;;17.02;;
79759;SDS011;69248;42.138;24.742;2023-05-16T06:33:59;29.02;;;17.42;;
79759;SDS011;69248;42.138;24.742;2023-05-16T06:36:27;25.37;;;15.70;;
79759;SDS011;69248;42.138;24.742;2023-05-16T06:38:55;25.75;;;17.45;;
79759;SDS011;69248;42.138;24.742;2023-05-16T06:41:23;22.40;;;16.60;;
79759;SDS011;69248;42.138;24.742;2023-05-16T06:43:51;26.45;;;16.48;;
79759;SDS011;69248;42.138;24.742;2023-05-16T06:46:18;24.45;;;16.15;;
79759;SDS011;69248;42.138;24.742;2023-05-16T06:48:46;28.35;;;17.92;;
79759;SDS011;69248;42.138;24.742;2023-05-16T06:51:13;20.02;;;14.28;;
79759;SDS011;69248;42.138;24.742;2023-05-16T06:53:41;17.75;;;13.75;;
79759;SDS011;69248;42.138;24.742;2023-05-16T06:56:08;25.45;;;15.83;;
79759;SDS011;69248;42.138;24.742;2023-05-16T06:58:36;30.37;;;15.45;;
79759;SDS011;69248;42.138;24.742;2023-05-16T07:01:04;26.97;;;17.02;;
79759;SDS011;69248;42.138;24.742;2023-05-16T07:03:31;22.10;;;14.85;;
79759;SDS011;69248;42.138;24.742;2023-05-16T07:05:59;32.80;;;14.15;;
79759;SDS011;69248;42.138;24.742;2023-05-16T07:08:26;29.12;;;17.17;;
79759;SDS011;69248;42.138;24.742;2023-05-16T07:10:54;24.82;;;14.50;;
79759;SDS011;69248;42.138;24.742;2023-05-16T07:13:21;18.48;;;12.10;;
79759;SDS011;69248;42.138;24.742;2023-05-16T07:15:49;13.32;;;10.45;;
79759;SDS011;69248;42.138;24.742;2023-05-16T07:18:18;22.15;;;12.65;;
79759;SDS011;69248;42.138;24.742;2023-05-16T07:20:46;27.25;;;13.30;;
79759;SDS011;69248;42.138;24.742;2023-05-16T07:23:13;29.60;;;13.32;;
79759;SDS011;69248;42.138;24.742;2023-05-16T07:25:41;21.82;;;12.35;;
79759;SDS011;69248;42.138;24.742;2023-05-16T07:28:08;18.25;;;12.20;;
79759;SDS011;69248;42.138;24.742;2023-05-16T07:30:36;17.57;;;12.18;;
79759;SDS011;69248;42.138;24.742;2023-05-16T07:33:03;23.30;;;11.88;;
79759;SDS011;69248;42.138;24.742;2023-05-16T07:35:31;22.35;;;11.80;;
79759;SDS011;69248;42.138;24.742;2023-05-16T07:37:58;27.48;;;19.48;;
79759;SDS011;69248;42.138;24.742;2023-05-16T07:40:26;20.35;;;11.60;;
79759;SDS011;69248;42.138;24.742;2023-05-16T07:42:54;22.58;;;12.43;;
79759;SDS011;69248;42.138;24.742;2023-05-16T07:45:21;17.00;;;11.93;;
79759;SDS011;69248;42.138;24.742;2023-05-16T07:47:50;18.35;;;11.78;;
79759;SDS011;69248;42.138;24.742;2023-05-16T07:50:18;19.80;;;12.03;;
79759;SDS011;69248;42.138;24.742;2023-05-16T07:52:45;23.98;;;12.15;;
79759;SDS011;69248;42.138;24.742;2023-05-16T07:55:13;26.62;;;11.70;;
79759;SDS011;69248;42.138;24.742;2023-05-16T07:57:41;21.48;;;12.23;;
79759;SDS011;69248;42.138;24.742;2023-05-16T08:00:08;17.12;;;11.95;;
79759;SDS011;69248;42.138;24.742;2023-05-16T08:02:37;25.62;;;13.03;;
79759;SDS011;69248;42.138;24.742;2023-05-16T08:05:04;20.40;;;12.98;;
79759;SDS011;69248;42.138;24.742;2023-05-16T08:07:33;27.45;;;13.68;;
79759;SDS011;69248;42.138;24.742;2023-05-16T08:10:00;24.40;;;13.83;;
79759;SDS011;69248;42.138;24.742;2023-05-16T08:12:28;24.82;;;14.60;;
79759;SDS011;69248;42.138;24.742;2023-05-16T08:14:56;17.85;;;11.48;;
79759;SDS011;69248;42.138;24.742;2023-05-16T08:17:23;20.48;;;11.70;;
79759;SDS011;69248;42.138;24.742;2023-05-16T08:19:51;23.73;;;13.70;;
79759;SDS011;69248;42.138;24.742;2023-05-16T08:22:18;31.60;;;18.95;;
79759;SDS011;69248;42.138;24.742;2023-05-16T08:24:46;20.77;;;13.25;;
79759;SDS011;69248;42.138;24.742;2023-05-16T08:27:14;20.55;;;12.73;;
79759;SDS011;69248;42.138;24.742;2023-05-16T08:29:41;26.05;;;14.35;;
79759;SDS011;69248;42.138;24.742;2023-05-16T08:32:09;24.20;;;13.03;;
79759;SDS011;69248;42.138;24.742;2023-05-16T08:34:36;20.08;;;9.80;;
79759;SDS011;69248;42.138;24.742;2023-05-16T08:37:04;18.35;;;12.37;;
79759;SDS011;69248;42.138;24.742;2023-05-16T08:39:31;26.00;;;14.13;;
79759;SDS011;69248;42.138;24.742;2023-05-16T08:41:59;29.55;;;12.50;;
79759;SDS011;69248;42.138;24.742;2023-05-16T08:44:27;22.75;;;12.33;;
79759;SDS011;69248;42.138;24.742;2023-05-16T08:46:55;15.45;;;11.10;;
79759;SDS011;69248;42.138;24.742;2023-05-16T08:49:23;18.27;;;13.13;;
79759;SDS011;69248;42.138;24.742;2023-05-16T08:51:54;24.25;;;12.35;;
79759;SDS011;69248;42.138;24.742;2023-05-16T08:54:23;17.52;;;12.90;;
79759;SDS011;69248;42.138;24.742;2023-05-16T08:56:51;17.42;;;13.68;;
79759;SDS011;69248;42.138;24.742;2023-05-16T08:59:18;22.00;;;12.90;;
79759;SDS011;69248;42.138;24.742;2023-05-16T09:01:46;19.32;;;11.45;;
79759;SDS011;69248;42.138;24.742;2023-05-16T09:04:14;24.25;;;13.62;;
79759;SDS011;69248;42.138;24.742;2023-05-16T09:06:42;31.85;;;12.65;;
79759;SDS011;69248;42.138;24.742;2023-05-16T09:09:10;19.90;;;12.80;;
79759;SDS011;69248;42.138;24.742;2023-05-16T09:11:38;25.97;;;16.27;;
79759;SDS011;69248;42.138;24.742;2023-05-16T09:14:06;15.68;;;9.88;;
79759;SDS011;69248;42.138;24.742;2023-05-16T09:16:33;14.03;;;9.73;;
79759;SDS011;69248;42.138;24.742;2023-05-16T09:19:01;15.32;;;10.60;;
79759;SDS011;69248;42.138;24.742;2023-05-16T09:21:32;23.62;;;13.25;;
79759;SDS011;69248;42.138;24.742;2023-05-16T09:24:04;20.50;;;11.83;;
79759;SDS011;69248;42.138;24.742;2023-05-16T09:26:33;13.30;;;9.25;;
79759;SDS011;69248;42.138;24.742;2023-05-16T09:29:11;11.80;;;10.20;;
79759;SDS011;69248;42.138;24.742;2023-05-16T09:31:40;13.13;;;10.35;;
79759;SDS011;69248;42.138;24.742;2023-05-16T09:34:08;21.85;;;10.90;;
79759;SDS011;69248;42.138;24.742;2023-05-16T09:36:38;11.70;;;9.75;;
79759;SDS011;69248;42.138;24.742;2023-05-16T09:39:06;15.40;;;10.00;;
79759;SDS011;69248;42.138;24.742;2023-05-16T09:41:33;17.98;;;12.03;;
79759;SDS011;69248;42.138;24.742;2023-05-16T09:44:05;17.32;;;10.03;;
79759;SDS011;69248;42.138;24.742;2023-05-16T09:46:33;14.23;;;11.08;;
79759;SDS011;69248;42.138;24.742;2023-05-16T09:49:01;20.35;;;11.30;;
79759;SDS011;69248;42.138;24.742;2023-05-16T09:51:29;20.55;;;11.48;;
79759;SDS011;69248;42.138;24.742;2023-05-16T09:53:57;31.07;;;13.88;;
79759;SDS011;69248;42.138;24.742;2023-05-16T09:56:25;15.50;;;11.15;;
79759;SDS011;69248;42.138;24.742;2023-05-16T09:58:54;20.65;;;12.10;;
79759;SDS011;69248;42.138;24.742;2023-05-16T10:01:22;19.30;;;11.57;;
79759;SDS011;69248;42.138;24.742;2023-05-16T10:03:49;18.80;;;12.25;;
79759;SDS011;69248;42.138;24.742;2023-05-16T10:06:17;17.67;;;10.95;;
79759;SDS011;69248;42.138;24.742;2023-05-16T10:08:45;15.58;;;11.55;;
79759;SDS011;69248;42.138;24.742;2023-05-16T10:11:14;24.40;;;9.40;;
79759;SDS011;69248;42.138;24.742;2023-05-16T10:13:43;24.20;;;10.15;;
79759;SDS011;69248;42.138;24.742;2023-05-16T10:16:14;24.47;;;15.25;;
79759;SDS011;69248;42.138;24.742;2023-05-16T10:18:41;15.83;;;12.50;;
79759;SDS011;69248;42.138;24.742;2023-05-16T10:21:12;27.45;;;13.65;;
79759;SDS011;69248;42.138;24.742;2023-05-16T10:23:40;19.17;;;12.75;;
79759;SDS011;69248;42.138;24.742;2023-05-16T10:26:09;24.15;;;11.03;;
79759;SDS011;69248;42.138;24.742;2023-05-16T10:28:39;21.50;;;12.95;;
79759;SDS011;69248;42.138;24.742;2023-05-16T10:31:07;24.00;;;13.72;;
79759;SDS011;69248;42.138;24.742;2023-05-16T10:33:37;32.15;;;15.53;;
79759;SDS011;69248;42.138;24.742;2023-05-16T10:36:06;19.27;;;12.65;;
79759;SDS011;69248;42.138;24.742;2023-05-16T10:38:35;19.07;;;13.68;;
79759;SDS011;69248;42.138;24.742;2023-05-16T10:41:04;14.18;;;10.10;;
79759;SDS011;69248;42.138;24.742;2023-05-16T10:43:33;18.90;;;13.78;;
79759;SDS011;69248;42.138;24.742;2023-05-16T10:46:02;17.75;;;13.18;;
79759;SDS011;69248;42.138;24.742;2023-05-16T10:48:31;24.18;;;13.38;;
79759;SDS011;69248;42.138;24.742;2023-05-16T10:51:01;17.87;;;14.00;;
79759;SDS011;69248;42.138;24.742;2023-05-16T10:53:32;32.88;;;22.82;;
79759;SDS011;69248;42.138;24.742;2023-05-16T11:06:32;21.82;;;13.90;;
79759;SDS011;69248;42.138;24.742;2023-05-16T11:11:45;23.40;;;12.18;;
79759;SDS011;69248;42.138;24.742;2023-05-16T11:17:00;17.37;;;12.28;;
79759;SDS011;69248;42.138;24.742;2023-05-16T11:19:32;18.50;;;11.15;;
79759;SDS011;69248;42.138;24.742;2023-05-16T11:22:07;18.95;;;14.85;;
79759;SDS011;69248;42.138;24.742;2023-05-16T11:24:36;28.07;;;19.42;;
79759;SDS011;69248;42.138;24.742;2023-05-16T11:27:05;23.07;;;14.85;;
79759;SDS011;69248;42.138;24.742;2023-05-16T11:29:34;21.68;;;13.68;;
79759;SDS011;69248;42.138;24.742;2023-05-16T11:32:02;26.50;;;12.55;;
79759;SDS011;69248;42.138;24.742;2023-05-16T11:34:31;25.77;;;12.55;;
79759;SDS011;69248;42.138;24.742;2023-05-16T11:37:03;17.98;;;13.62;;
79759;SDS011;69248;42.138;24.742;2023-05-16T11:39:31;19.10;;;13.00;;
79759;SDS011;69248;42.138;24.742;2023-05-16T11:41:59;19.92;;;13.62;;
79759;SDS011;69248;42.138;24.742;2023-05-16T11:44:27;23.92;;;15.95;;
79759;SDS011;69248;42.138;24.742;2023-05-16T11:46:54;26.10;;;16.45;;
79759;SDS011;69248;42.138;24.742;2023-05-16T11:49:22;22.27;;;13.68;;
79759;SDS011;69248;42.138;24.742;2023-05-16T11:51:51;17.67;;;12.23;;
79759;SDS011;69248;42.138;24.742;2023-05-16T11:54:22;21.55;;;12.80;;
79759;SDS011;69248;42.138;24.742;2023-05-16T11:56:50;16.75;;;12.95;;
79759;SDS011;69248;42.138;24.742;2023-05-16T11:59:18;19.12;;;12.50;;
79759;SDS011;69248;42.138;24.742;2023-05-16T12:01:46;24.18;;;12.98;;
79759;SDS011;69248;42.138;24.742;2023-05-16T12:04:14;18.37;;;11.73;;
79759;SDS011;69248;42.138;24.742;2023-05-16T12:06:43;14.70;;;11.12;;
79759;SDS011;69248;42.138;24.742;2023-05-16T12:09:12;15.00;;;10.60;;
79759;SDS011;69248;42.138;24.742;2023-05-16T12:11:45;20.82;;;12.43;;
79759;SDS011;69248;42.138;24.742;2023-05-16T12:14:10;21.12;;;12.00;;
79759;SDS011;69248;42.138;24.742;2023-05-16T12:16:39;20.30;;;11.68;;
79759;SDS011;69248;42.138;24.742;2023-05-16T12:19:08;22.20;;;14.93;;
79759;SDS011;69248;42.138;24.742;2023-05-16T12:21:37;14.70;;;11.35;;
79759;SDS011;69248;42.138;24.742;2023-05-16T12:24:07;18.12;;;13.78;;
79759;SDS011;69248;42.138;24.742;2023-05-16T12:26:42;17.17;;;10.88;;
79759;SDS011;69248;42.138;24.742;2023-05-16T12:29:09;31.10;;;14.10;;
79759;SDS011;69248;42.138;24.742;2023-05-16T12:31:38;15.63;;;8.73;;
79759;SDS011;69248;42.138;24.742;2023-05-16T12:34:16;16.75;;;10.58;;
79759;SDS011;69248;42.138;24.742;2023-05-16T12:36:49;22.10;;;10.70;;
79759;SDS011;69248;42.138;24.742;2023-05-16T12:39:19;20.05;;;11.83;;
79759;SDS011;69248;42.138;24.742;2023-05-16T12:41:47;14.73;;;8.98;;
79759;SDS011;69248;42.138;24.742;2023-05-16T12:44:15;19.35;;;10.60;;
79759;SDS011;69248;42.138;24.742;2023-05-16T12:46:44;17.50;;;12.50;;
79759;SDS011;69248;42.138;24.742;2023-05-16T12:49:14;21.07;;;11.00;;
79759;SDS011;69248;42.138;24.742;2023-05-16T12:51:49;15.38;;;9.85;;
79759;SDS011;69248;42.138;24.742;2023-05-16T12:54:18;13.25;;;9.13;;
79759;SDS011;69248;42.138;24.742;2023-05-16T12:56:47;23.52;;;9.70;;
79759;SDS011;69248;42.138;24.742;2023-05-16T12:59:15;21.23;;;9.68;;
79759;SDS011;69248;42.138;24.742;2023-05-16T13:01:44;20.95;;;8.70;;
79759;SDS011;69248;42.138;24.742;2023-05-16T13:04:12;18.45;;;8.98;;
79759;SDS011;69248;42.138;24.742;2023-05-16T13:06:41;21.87;;;9.18;;
79759;SDS011;69248;42.138;24.742;2023-05-16T13:09:08;12.40;;;8.43;;
79759;SDS011;69248;42.138;24.742;2023-05-16T13:11:36;21.80;;;11.03;;
79759;SDS011;69248;42.138;24.742;2023-05-16T13:14:03;13.88;;;9.50;;
79759;SDS011;69248;42.138;24.742;2023-05-16T13:16:31;20.08;;;9.78;;
79759;SDS011;69248;42.138;24.742;2023-05-16T13:18:58;19.02;;;10.20;;
79759;SDS011;69248;42.138;24.742;2023-05-16T13:21:26;14.23;;;8.85;;
79759;SDS011;69248;42.138;24.742;2023-05-16T13:23:56;19.40;;;9.53;;
79759;SDS011;69248;42.138;24.742;2023-05-16T13:26:24;19.48;;;8.38;;
79759;SDS011;69248;42.138;24.742;2023-05-16T13:28:55;15.68;;;7.20;;
79759;SDS011;69248;42.138;24.742;2023-05-16T13:31:22;14.65;;;7.65;;
79759;SDS011;69248;42.138;24.742;2023-05-16T13:33:50;14.50;;;7.10;;
79759;SDS011;69248;42.138;24.742;2023-05-16T13:36:18;9.98;;;7.25;;
79759;SDS011;69248;42.138;24.742;2023-05-16T13:38:45;14.75;;;6.20;;
79759;SDS011;69248;42.138;24.742;2023-05-16T13:41:13;11.97;;;6.35;;
79759;SDS011;69248;42.138;24.742;2023-05-16T13:43:40;14.73;;;6.72;;
79759;SDS011;69248;42.138;24.742;2023-05-16T13:46:08;8.03;;;5.83;;
79759;SDS011;69248;42.138;24.742;2023-05-16T13:48:36;12.07;;;6.35;;
79759;SDS011;69248;42.138;24.742;2023-05-16T13:51:03;12.88;;;6.83;;
79759;SDS011;69248;42.138;24.742;2023-05-16T13:53:31;8.33;;;6.50;;
79759;SDS011;69248;42.138;24.742;2023-05-16T13:55:58;15.10;;;8.80;;
79759;SDS011;69248;42.138;24.742;2023-05-16T13:58:26;14.85;;;8.28;;
79759;SDS011;69248;42.138;24.742;2023-05-16T14:00:53;14.93;;;8.63;;
79759;SDS011;69248;42.138;24.742;2023-05-16T14:03:21;15.90;;;8.78;;
79759;SDS011;69248;42.138;24.742;2023-05-16T14:05:48;12.53;;;6.83;;
79759;SDS011;69248;42.138;24.742;2023-05-16T14:08:16;12.70;;;7.87;;
79759;SDS011;69248;42.138;24.742;2023-05-16T14:10:44;17.42;;;9.13;;
79759;SDS011;69248;42.138;24.742;2023-05-16T14:13:14;20.70;;;9.35;;
79759;SDS011;69248;42.138;24.742;2023-05-16T14:15:42;16.12;;;8.45;;
79759;SDS011;69248;42.138;24.742;2023-05-16T14:18:10;11.93;;;8.43;;
79759;SDS011;69248;42.138;24.742;2023-05-16T14:20:38;20.25;;;9.40;;
79759;SDS011;69248;42.138;24.742;2023-05-16T14:23:06;11.60;;;8.00;;
79759;SDS011;69248;42.138;24.742;2023-05-16T14:25:33;18.60;;;9.43;;
79759;SDS011;69248;42.138;24.742;2023-05-16T14:28:01;28.85;;;10.95;;
79759;SDS011;69248;42.138;24.742;2023-05-16T14:30:29;14.28;;;8.75;;
79759;SDS011;69248;42.138;24.742;2023-05-16T14:32:56;20.65;;;10.13;;
79759;SDS011;69248;42.138;24.742;2023-05-16T14:35:24;15.95;;;8.98;;
79759;SDS011;69248;42.138;24.742;2023-05-16T14:37:51;17.30;;;9.95;;
79759;SDS011;69248;42.138;24.742;2023-05-16T14:40:19;19.25;;;9.78;;